createdAt,value
2023-09-23T00:00:52.321Z,72.40
2023-09-23T00:03:21.109Z,72.02
2023-09-23T00:05:48.820Z,71.92
2023-09-23T00:08:19.745Z,71.79
2023-09-23T00:10:47.397Z,71.79
2023-09-23T00:13:15.490Z,72.04
2023-09-23T00:15:43.676Z,72.06
2023-09-23T00:18:12.324Z,72.60
2023-09-23T00:20:42.239Z,71.85
2023-09-23T00:23:09.823Z,72.24
2023-09-23T00:25:38.319Z,72.21
2023-09-23T00:28:09.528Z,72.45
2023-09-23T00:30:37.461Z,72.05
2023-09-23T00:33:05.139Z,72.37
2023-09-23T00:35:35.596Z,72.28
2023-09-23T00:38:03.559Z,72.64
2023-09-23T00:40:33.966Z,72.37
2023-09-23T00:43:01.720Z,72.39
2023-09-23T00:45:30.736Z,72.48
2023-09-23T00:47:58.484Z,72.35
2023-09-23T00:50:26.102Z,72.52
2023-09-23T00:52:54.250Z,72.63
2023-09-23T00:55:22.120Z,72.82
2023-09-23T00:57:54.182Z,72.69
2023-09-23T01:00:26.625Z,72.59
2023-09-23T01:02:57.335Z,72.96
2023-09-23T01:05:28.689Z,72.57
2023-09-23T01:07:56.399Z,72.96
2023-09-23T01:10:24.472Z,72.81
2023-09-23T01:12:52.289Z,72.54
2023-09-23T01:15:22.101Z,72.52
2023-09-23T01:17:51.861Z,73.18
2023-09-23T01:20:19.482Z,73.06
2023-09-23T01:22:47.339Z,73.05
2023-09-23T01:25:14.957Z,72.92
2023-09-23T01:27:42.896Z,73.05
2023-09-23T01:30:13.712Z,72.93
2023-09-23T01:32:41.501Z,73.08
2023-09-23T01:35:10.671Z,73.50
2023-09-23T01:37:39.198Z,73.45
2023-09-23T01:40:07.492Z,72.85
2023-09-23T01:42:36.785Z,73.49
2023-09-23T01:45:05.977Z,73.60
2023-09-23T01:47:33.638Z,73.94
2023-09-23T01:50:01.623Z,73.75
2023-09-23T01:52:30.493Z,73.90
2023-09-23T01:54:58.077Z,73.86
2023-09-23T01:57:26.098Z,73.82
2023-09-23T01:59:53.593Z,74.24
2023-09-23T02:02:21.434Z,74.18
2023-09-23T02:04:49.763Z,74.24
2023-09-23T02:07:17.282Z,74.01
2023-09-23T02:09:44.879Z,74.26
2023-09-23T02:12:13.844Z,74.79
2023-09-23T02:14:41.416Z,74.69
2023-09-23T02:17:09.622Z,74.76
2023-09-23T02:19:37.521Z,74.68
2023-09-23T02:22:07.054Z,74.93
2023-09-23T02:24:34.800Z,75.00
2023-09-23T02:27:02.371Z,74.87
2023-09-23T02:29:30.782Z,75.38
2023-09-23T02:31:58.601Z,74.96
2023-09-23T02:34:26.149Z,75.12
2023-09-23T02:36:54.227Z,74.86
2023-09-23T02:39:21.868Z,75.20
2023-09-23T02:41:49.769Z,75.31
2023-09-23T02:44:20.195Z,75.45
2023-09-23T02:46:47.930Z,75.56
2023-09-23T02:49:15.631Z,75.56
2023-09-23T02:51:44.142Z,75.37
2023-09-23T02:54:12.414Z,74.85
2023-09-23T02:56:39.925Z,75.23
2023-09-23T02:59:14.708Z,75.38
2023-09-23T03:01:46.569Z,75.90
2023-09-23T03:04:21.105Z,75.12
2023-09-23T03:06:50.936Z,75.31
2023-09-23T03:09:18.681Z,75.31
2023-09-23T03:11:50.495Z,75.12
2023-09-23T03:14:23.712Z,74.90
2023-09-23T03:16:52.926Z,75.08
2023-09-23T03:19:26.132Z,74.63
2023-09-23T03:21:57.453Z,75.16
2023-09-23T03:24:27.339Z,74.53
2023-09-23T03:26:55.400Z,74.55
2023-09-23T03:29:23.893Z,74.76
2023-09-23T03:31:51.576Z,74.70
2023-09-23T03:34:19.159Z,74.72
2023-09-23T03:36:48.094Z,74.53
2023-09-23T03:39:16.919Z,74.39
2023-09-23T03:41:48.004Z,74.05
2023-09-23T03:44:16.829Z,74.51
2023-09-23T03:46:44.467Z,74.09
2023-09-23T03:49:12.605Z,73.92
2023-09-23T03:51:40.273Z,74.23
2023-09-23T03:54:07.810Z,73.76
2023-09-23T03:56:35.710Z,74.42
2023-09-23T03:59:08.192Z,74.12
2023-09-23T04:01:37.736Z,73.77
2023-09-23T04:04:07.689Z,74.40
2023-09-23T04:06:35.518Z,73.66
2023-09-23T04:09:03.176Z,74.01
2023-09-23T04:11:30.872Z,74.03
2023-09-23T04:13:58.517Z,74.25
2023-09-23T04:16:27.099Z,74.25
2023-09-23T04:18:54.729Z,73.46
2023-09-23T04:21:26.252Z,73.40
2023-09-23T04:23:54.639Z,74.36
2023-09-23T04:26:25.549Z,74.38
2023-09-23T04:28:53.972Z,74.18
2023-09-23T04:31:25.283Z,74.47
2023-09-23T04:33:53.608Z,74.12
2023-09-23T04:36:22.516Z,74.24
2023-09-23T04:38:50.252Z,74.42
2023-09-23T04:41:17.788Z,74.57
2023-09-23T04:43:45.556Z,74.48
2023-09-23T04:46:16.119Z,75.08
2023-09-23T04:48:43.999Z,74.37
2023-09-23T04:51:12.531Z,74.92
2023-09-23T04:53:40.091Z,74.89
2023-09-23T04:56:11.455Z,75.16
2023-09-23T04:58:39.058Z,75.25
2023-09-23T05:01:07.090Z,74.77
2023-09-23T05:03:37.955Z,74.70
2023-09-23T05:06:06.662Z,75.04
2023-09-23T05:08:34.519Z,74.42
2023-09-23T05:11:02.749Z,74.76
2023-09-23T05:13:31.367Z,75.05
2023-09-23T05:15:59.489Z,74.63
2023-09-23T05:18:27.093Z,74.70
2023-09-23T05:20:54.811Z,74.72
2023-09-23T05:23:24.430Z,74.23
2023-09-23T05:25:52.114Z,74.02
2023-09-23T05:28:21.168Z,74.10
2023-09-23T05:30:48.762Z,74.36
2023-09-23T05:33:16.346Z,73.96
2023-09-23T05:35:43.925Z,73.96
2023-09-23T05:38:13.395Z,74.10
2023-09-23T05:40:41.966Z,73.69
2023-09-23T05:43:12.685Z,73.51
2023-09-23T05:45:40.273Z,73.96
2023-09-23T05:48:07.913Z,73.73
2023-09-23T05:50:36.577Z,73.96
2023-09-23T05:53:04.292Z,73.09
2023-09-23T05:55:33.145Z,73.68
2023-09-23T05:58:01.023Z,73.64
2023-09-23T06:00:28.596Z,74.23
2023-09-23T06:02:56.226Z,73.75
2023-09-23T06:05:25.720Z,73.41
2023-09-23T06:07:55.630Z,73.43
2023-09-23T06:10:23.257Z,73.44
2023-09-23T06:12:51.354Z,73.47
2023-09-23T06:15:18.958Z,73.13
2023-09-23T06:17:47.413Z,73.67
2023-09-23T06:20:15.103Z,73.74
2023-09-23T06:22:42.767Z,73.42
2023-09-23T06:25:10.305Z,73.54
2023-09-23T06:27:38.165Z,72.97
2023-09-23T06:30:05.715Z,73.08
2023-09-23T06:32:33.265Z,73.67
2023-09-23T06:35:00.926Z,73.16
2023-09-23T06:37:28.519Z,73.86
2023-09-23T06:39:56.106Z,73.81
2023-09-23T06:42:23.711Z,74.06
2023-09-23T06:44:51.274Z,74.04
2023-09-23T06:47:18.980Z,73.45
2023-09-23T06:49:46.646Z,73.41
2023-09-23T06:52:14.287Z,73.55
2023-09-23T06:54:41.880Z,73.18
2023-09-23T06:57:10.270Z,72.73
2023-09-23T06:59:37.837Z,73.17
2023-09-23T07:02:05.613Z,72.82
2023-09-23T07:04:33.393Z,73.24
2023-09-23T07:07:01.107Z,73.03
2023-09-23T07:09:29.472Z,72.58
2023-09-23T07:11:57.157Z,72.97
2023-09-23T07:14:24.888Z,72.40
2023-09-23T07:16:52.699Z,73.07
2023-09-23T07:19:20.860Z,72.35
2023-09-23T07:21:48.529Z,72.81
2023-09-23T07:24:16.118Z,72.33
2023-09-23T07:26:43.717Z,71.92
2023-09-23T07:29:11.417Z,71.75
2023-09-23T07:31:39.110Z,72.40
2023-09-23T07:34:06.783Z,71.97
2023-09-23T07:36:34.423Z,71.39
2023-09-23T07:39:02.090Z,71.62
2023-09-23T07:41:30.328Z,71.16
2023-09-23T07:43:58.343Z,71.85
2023-09-23T07:46:26.157Z,71.48
2023-09-23T07:48:53.815Z,71.48
2023-09-23T07:51:21.451Z,71.80
2023-09-23T07:53:49.111Z,71.76
2023-09-23T07:56:16.810Z,71.82
2023-09-23T07:58:44.467Z,71.11
2023-09-23T08:01:12.150Z,71.03
2023-09-23T08:03:39.928Z,70.54
2023-09-23T08:06:07.595Z,70.24
2023-09-23T08:08:35.618Z,70.19
2023-09-23T08:11:04.289Z,70.11
2023-09-23T08:13:32.256Z,70.69
2023-09-23T08:16:00.044Z,70.85
2023-09-23T08:18:27.870Z,70.85
2023-09-23T08:20:55.659Z,70.46
2023-09-23T08:23:23.824Z,70.07
2023-09-23T08:25:51.706Z,69.71
2023-09-23T08:28:19.394Z,68.89
2023-09-23T08:30:50.125Z,68.90
2023-09-23T08:33:19.236Z,69.23
2023-09-23T08:35:46.962Z,68.91
2023-09-23T08:38:14.664Z,69.52
2023-09-23T08:40:42.377Z,69.67
2023-09-23T08:43:10.027Z,69.24
2023-09-23T08:45:39.124Z,69.00
2023-09-23T08:48:06.965Z,69.26
2023-09-23T08:50:34.644Z,69.19
2023-09-23T08:53:02.292Z,68.97
2023-09-23T08:55:30.005Z,68.99
2023-09-23T08:58:03.215Z,68.53
2023-09-23T09:00:32.129Z,68.61
2023-09-23T09:02:59.813Z,68.83
2023-09-23T09:05:27.654Z,68.76
2023-09-23T09:07:55.888Z,69.38
2023-09-23T09:10:26.815Z,69.08
2023-09-23T09:12:56.465Z,69.76
2023-09-23T09:15:27.776Z,69.09
2023-09-23T09:17:55.482Z,69.31
2023-09-23T09:20:23.343Z,68.29
2023-09-23T09:22:51.761Z,68.54
2023-09-23T09:25:22.110Z,68.71
2023-09-23T09:27:49.866Z,68.81
2023-09-23T09:30:18.043Z,68.58
2023-09-23T09:32:46.241Z,68.52
2023-09-23T09:35:13.931Z,68.81
2023-09-23T09:37:41.818Z,68.76
2023-09-23T09:40:10.428Z,68.39
2023-09-23T09:42:38.270Z,68.20
2023-09-23T09:45:06.719Z,67.19
2023-09-23T09:47:34.574Z,66.59
2023-09-23T09:50:04.936Z,67.25
2023-09-23T09:52:32.728Z,66.74
2023-09-23T09:55:00.666Z,66.81
2023-09-23T09:57:30.498Z,66.22
2023-09-23T09:59:58.229Z,66.51
2023-09-23T10:02:26.107Z,65.60
2023-09-23T10:04:55.018Z,64.93
2023-09-23T10:07:24.643Z,64.29
2023-09-23T10:09:55.162Z,64.23
2023-09-23T10:12:26.306Z,63.97
2023-09-23T10:14:54.111Z,63.78
2023-09-23T10:17:21.913Z,62.55
2023-09-23T10:19:50.601Z,60.98
2023-09-23T10:22:21.831Z,59.48
2023-09-23T10:24:49.987Z,57.91
2023-09-23T10:27:18.568Z,56.58
2023-09-23T10:29:47.007Z,55.30
2023-09-23T10:32:16.422Z,55.50
2023-09-23T10:37:12.919Z,56.71
2023-09-23T10:39:40.565Z,56.18
2023-09-23T10:42:08.321Z,57.12
2023-09-23T10:44:36.096Z,57.76
2023-09-23T10:47:03.746Z,57.87
2023-09-23T10:49:31.457Z,59.19
2023-09-23T10:51:59.180Z,60.43
2023-09-23T10:54:27.262Z,61.20
2023-09-23T10:56:55.094Z,61.49
2023-09-23T10:59:22.803Z,62.81
2023-09-23T11:01:51.065Z,63.04
2023-09-23T11:04:20.130Z,63.26
2023-09-23T11:06:47.833Z,64.20
2023-09-23T11:09:15.882Z,64.34
2023-09-23T11:11:43.958Z,64.94
2023-09-23T11:14:11.634Z,65.07
2023-09-23T11:16:39.636Z,65.64
2023-09-23T11:19:07.502Z,65.46
2023-09-23T11:21:35.293Z,65.26
2023-09-23T11:24:05.900Z,64.35
2023-09-23T11:26:34.823Z,61.96
2023-09-23T11:29:02.569Z,58.77
2023-09-23T11:31:30.298Z,57.03
2023-09-23T11:33:58.256Z,56.05
2023-09-23T11:36:27.041Z,54.76
2023-09-23T11:38:55.366Z,53.66
2023-09-23T11:41:23.245Z,52.82
2023-09-23T11:43:51.812Z,51.32
2023-09-23T11:46:22.271Z,50.74
2023-09-23T11:48:50.663Z,50.25
2023-09-23T11:51:19.467Z,49.65
2023-09-23T11:53:47.270Z,50.09
2023-09-23T11:56:16.968Z,50.39
2023-09-23T11:58:54.552Z,51.15
2023-09-23T12:01:29.848Z,51.17
2023-09-23T12:03:59.781Z,51.31
2023-09-23T12:06:27.619Z,50.39
2023-09-23T12:08:55.536Z,50.37
2023-09-23T12:11:23.402Z,50.21
2023-09-23T12:13:53.605Z,50.76
2023-09-23T12:16:21.433Z,50.14
2023-09-23T12:18:49.903Z,50.26
2023-09-23T12:21:18.042Z,49.74
2023-09-23T12:23:45.823Z,49.78
2023-09-23T12:26:16.603Z,49.99
2023-09-23T12:28:45.899Z,50.08
2023-09-23T12:31:16.926Z,50.09
2023-09-23T12:33:44.656Z,50.78
2023-09-23T12:36:13.162Z,50.69
2023-09-23T12:38:40.921Z,51.05
2023-09-23T12:41:08.607Z,50.46
2023-09-23T12:43:39.644Z,50.81
2023-09-23T12:46:07.339Z,52.16
2023-09-23T12:48:35.053Z,52.89
2023-09-23T12:51:02.808Z,54.13
2023-09-23T12:53:31.383Z,56.61
2023-09-23T12:55:59.094Z,57.99
2023-09-23T12:58:26.846Z,59.24
2023-09-23T13:00:54.615Z,59.86
2023-09-23T13:03:22.595Z,60.20
2023-09-23T13:05:50.521Z,61.05
2023-09-23T13:08:18.272Z,60.44
2023-09-23T13:10:45.967Z,59.35
2023-09-23T13:13:13.673Z,59.07
2023-09-23T13:15:42.307Z,57.66
2023-09-23T13:18:10.960Z,57.98
2023-09-23T13:20:38.903Z,57.75
2023-09-23T13:23:08.913Z,58.14
2023-09-23T13:25:36.891Z,58.56
2023-09-23T13:28:04.892Z,58.66
2023-09-23T13:30:32.594Z,58.42
2023-09-23T13:33:00.363Z,57.91
2023-09-23T13:35:28.218Z,57.54
2023-09-23T13:37:55.905Z,57.06
2023-09-23T13:40:23.585Z,56.17
2023-09-23T13:42:51.734Z,57.00
2023-09-23T13:45:19.650Z,57.05
2023-09-23T13:47:47.725Z,58.01
2023-09-23T13:50:15.992Z,58.61
2023-09-23T13:52:43.871Z,59.19
2023-09-23T13:55:12.068Z,58.86
2023-09-23T13:57:39.863Z,57.86
2023-09-23T14:00:09.363Z,56.94
2023-09-23T14:02:37.175Z,56.10
2023-09-23T14:05:06.053Z,56.35
2023-09-23T14:07:34.153Z,56.69
2023-09-23T14:10:14.783Z,57.12
2023-09-23T14:12:48.927Z,57.76
2023-09-23T14:15:16.663Z,58.22
2023-09-23T14:17:44.521Z,58.21
2023-09-23T14:20:14.413Z,58.93
2023-09-23T14:22:45.071Z,59.28
2023-09-23T14:25:12.813Z,59.43
2023-09-23T14:27:40.660Z,60.40
2023-09-23T14:30:09.627Z,60.30
2023-09-23T14:32:37.425Z,60.66
2023-09-23T14:35:05.224Z,60.50
2023-09-23T14:37:33.031Z,60.45
2023-09-23T14:40:01.597Z,60.03
2023-09-23T14:42:29.757Z,60.11
2023-09-23T14:44:57.422Z,60.08
2023-09-23T14:47:25.417Z,59.66
2023-09-23T14:49:53.573Z,58.72
2023-09-23T14:52:21.522Z,57.53
2023-09-23T14:54:49.592Z,57.00
2023-09-23T14:57:17.722Z,57.10
2023-09-23T14:59:45.452Z,56.95
2023-09-23T15:02:13.394Z,57.95
2023-09-23T15:04:41.405Z,58.55
2023-09-23T15:07:09.181Z,59.05
2023-09-23T15:09:36.966Z,59.79
2023-09-23T15:12:04.803Z,60.22
2023-09-23T15:14:32.547Z,60.69
2023-09-23T15:17:00.568Z,61.09
2023-09-23T15:19:28.411Z,60.70
2023-09-23T15:21:56.427Z,60.87
2023-09-23T15:24:24.318Z,61.73
2023-09-23T15:26:52.220Z,61.48
2023-09-23T15:29:20.278Z,61.88
2023-09-23T15:31:48.259Z,61.58
2023-09-23T15:34:16.285Z,61.04
2023-09-23T15:36:44.112Z,60.21
2023-09-23T15:39:12.228Z,60.12
2023-09-23T15:41:40.782Z,59.73
2023-09-23T15:44:08.511Z,60.37
2023-09-23T15:46:36.827Z,60.97
2023-09-23T15:49:04.605Z,60.58
2023-09-23T15:51:32.709Z,61.12
2023-09-23T15:54:00.436Z,61.67
2023-09-23T15:56:28.255Z,61.28
2023-09-23T15:58:55.913Z,61.24
2023-09-23T16:01:24.013Z,62.11
2023-09-23T16:03:51.979Z,61.79
2023-09-23T16:06:19.899Z,62.04
2023-09-23T16:08:47.928Z,62.63
2023-09-23T16:11:15.895Z,62.15
2023-09-23T16:13:43.770Z,62.49
2023-09-23T16:16:11.827Z,62.72
2023-09-23T16:18:39.783Z,62.75
2023-09-23T16:21:07.592Z,62.22
2023-09-23T16:23:35.983Z,63.22
2023-09-23T16:26:03.780Z,62.72
2023-09-23T16:28:31.599Z,63.08
2023-09-23T16:31:00.051Z,63.74
2023-09-23T16:33:28.835Z,63.92
2023-09-23T16:35:56.603Z,64.03
2023-09-23T16:38:24.361Z,64.63
2023-09-23T16:40:52.186Z,63.94
2023-09-23T16:43:20.253Z,63.98
2023-09-23T16:45:51.085Z,63.94
2023-09-23T16:48:19.018Z,63.82
2023-09-23T16:50:47.412Z,63.62
2023-09-23T16:53:15.395Z,63.77
2023-09-23T16:55:44.321Z,63.72
2023-09-23T16:58:12.908Z,63.47
2023-09-23T17:00:44.310Z,63.62
2023-09-23T17:03:12.487Z,64.07
2023-09-23T17:05:40.299Z,63.69
2023-09-23T17:08:08.869Z,63.88
2023-09-23T17:10:36.808Z,63.82
2023-09-23T17:13:04.572Z,63.76
2023-09-23T17:15:32.262Z,63.55
2023-09-23T17:18:01.968Z,64.08
2023-09-23T17:20:31.124Z,63.59
2023-09-23T17:22:58.827Z,63.64
2023-09-23T17:25:27.153Z,63.86
2023-09-23T17:27:55.112Z,64.33
2023-09-23T17:30:23.470Z,64.20
2023-09-23T17:32:52.113Z,64.01
2023-09-23T17:35:20.663Z,64.27
2023-09-23T17:37:48.469Z,64.27
2023-09-23T17:40:16.577Z,64.64
2023-09-23T17:42:44.397Z,64.79
2023-09-23T17:45:12.180Z,64.60
2023-09-23T17:47:39.993Z,65.13
2023-09-23T17:50:07.904Z,64.86
2023-09-23T17:52:36.245Z,64.83
2023-09-23T17:55:04.380Z,64.70
2023-09-23T17:57:34.194Z,64.26
2023-09-23T18:00:01.932Z,64.86
2023-09-23T18:02:29.953Z,65.12
2023-09-23T18:04:57.907Z,65.50
2023-09-23T18:07:25.827Z,64.82
2023-09-23T18:09:53.609Z,65.23
2023-09-23T18:12:21.480Z,64.94
2023-09-23T18:14:50.057Z,64.83
2023-09-23T18:17:17.987Z,65.21
2023-09-23T18:19:45.908Z,65.04
2023-09-23T18:22:14.687Z,64.66
2023-09-23T18:24:49.861Z,65.12
2023-09-23T18:27:18.406Z,65.12
2023-09-23T18:29:47.563Z,65.57
2023-09-23T18:32:16.969Z,65.56
2023-09-23T18:34:44.919Z,65.19
2023-09-23T18:37:12.792Z,65.68
2023-09-23T18:39:40.656Z,65.34
2023-09-23T18:42:08.477Z,65.35
2023-09-23T18:44:38.242Z,65.02
2023-09-23T18:47:08.865Z,65.61
2023-09-23T18:49:36.773Z,65.83
2023-09-23T18:52:04.576Z,65.30
2023-09-23T18:54:33.192Z,65.63
2023-09-23T18:57:01.431Z,65.95
2023-09-23T18:59:29.674Z,65.54
2023-09-23T19:01:57.741Z,65.89
2023-09-23T19:04:25.565Z,65.48
2023-09-23T19:06:53.328Z,65.81
2023-09-23T19:09:22.912Z,65.63
2023-09-23T19:11:50.800Z,65.56
2023-09-23T19:14:20.092Z,65.55
2023-09-23T19:16:48.054Z,65.49
2023-09-23T19:19:19.254Z,65.93
2023-09-23T19:21:46.987Z,65.76
2023-09-23T19:24:19.488Z,66.20
2023-09-23T19:26:56.601Z,65.91
2023-09-23T19:29:27.766Z,66.03
2023-09-23T19:32:00.431Z,66.01
2023-09-23T19:34:28.483Z,66.13
2023-09-23T19:36:58.606Z,65.99
2023-09-23T19:39:28.167Z,65.76
2023-09-23T19:41:56.158Z,66.04
2023-09-23T19:44:25.079Z,66.61
2023-09-23T19:46:53.203Z,66.47
2023-09-23T19:49:21.084Z,66.76
2023-09-23T19:51:49.437Z,66.92
2023-09-23T19:54:17.580Z,67.20
2023-09-23T19:56:46.029Z,67.14
2023-09-23T19:59:13.923Z,67.66
2023-09-23T20:01:42.808Z,67.03
2023-09-23T20:04:11.132Z,67.22
2023-09-23T20:06:38.955Z,67.96
2023-09-23T20:09:07.898Z,67.49
2023-09-23T20:11:35.772Z,67.83
2023-09-23T20:14:03.409Z,67.70
2023-09-23T20:16:33.279Z,67.86
2023-09-23T20:19:03.021Z,67.97
2023-09-23T20:21:31.803Z,68.20
2023-09-23T20:24:00.055Z,67.98
2023-09-23T20:26:28.886Z,67.96
2023-09-23T20:28:56.651Z,68.51
2023-09-23T20:31:24.531Z,68.54
2023-09-23T20:33:52.519Z,67.83
2023-09-23T20:36:25.398Z,68.12
2023-09-23T20:38:54.200Z,68.21
2023-09-23T20:41:22.073Z,68.47
2023-09-23T20:43:51.300Z,68.19
2023-09-23T20:46:21.172Z,68.02
2023-09-23T20:48:48.981Z,68.55
2023-09-23T20:51:17.820Z,68.07
2023-09-23T20:53:46.279Z,68.54
2023-09-23T20:56:14.724Z,68.26
2023-09-23T20:58:43.827Z,68.45
2023-09-23T21:01:11.559Z,67.98
2023-09-23T21:03:39.405Z,67.87
2023-09-23T21:06:08.218Z,68.73
2023-09-23T21:08:36.342Z,68.34
2023-09-23T21:11:04.034Z,68.04
2023-09-23T21:13:31.811Z,68.23
2023-09-23T21:16:00.351Z,68.15
2023-09-23T21:18:31.028Z,68.37
2023-09-23T21:20:58.857Z,68.10
2023-09-23T21:23:30.574Z,68.80
2023-09-23T21:25:58.424Z,68.26
2023-09-23T21:28:26.627Z,68.40
2023-09-23T21:30:54.884Z,67.43
2023-09-23T21:33:22.689Z,67.99
2023-09-23T21:35:50.849Z,67.92
2023-09-23T21:38:18.820Z,67.96
2023-09-23T21:40:46.504Z,67.83
2023-09-23T21:43:14.288Z,67.95
2023-09-23T21:45:42.156Z,68.36
2023-09-23T21:48:11.321Z,68.22
2023-09-23T21:50:39.068Z,67.98
2023-09-23T21:53:07.246Z,68.48
2023-09-23T21:55:34.941Z,68.14
2023-09-23T21:58:02.629Z,68.57
2023-09-23T22:00:30.934Z,68.39
2023-09-23T22:02:59.019Z,68.03
2023-09-23T22:05:26.983Z,68.09
2023-09-23T22:07:54.810Z,68.52
2023-09-23T22:10:22.576Z,68.25
2023-09-23T22:12:50.782Z,68.50
2023-09-23T22:15:18.925Z,68.72
2023-09-23T22:17:46.851Z,68.39
2023-09-23T22:20:16.555Z,68.29
2023-09-23T22:22:44.726Z,68.04
2023-09-23T22:25:16.403Z,68.87
2023-09-23T22:27:46.726Z,68.45
2023-09-23T22:30:18.339Z,68.59
2023-09-23T22:32:46.452Z,68.37
2023-09-23T22:35:15.220Z,68.82
2023-09-23T22:37:42.938Z,68.57
2023-09-23T22:40:15.117Z,68.23
2023-09-23T22:42:45.101Z,68.62
2023-09-23T22:45:23.646Z,68.64
2023-09-23T22:48:00.634Z,68.66
2023-09-23T22:50:29.050Z,69.09
2023-09-23T22:52:57.394Z,69.38
2023-09-23T22:55:25.922Z,69.46
2023-09-23T22:57:53.959Z,69.59
2023-09-23T23:00:26.961Z,69.64
2023-09-23T23:02:55.594Z,69.70
2023-09-23T23:05:26.361Z,69.96
2023-09-23T23:07:54.401Z,70.15
2023-09-23T23:10:22.001Z,69.75
2023-09-23T23:12:49.612Z,70.39
2023-09-23T23:15:17.328Z,70.51
2023-09-23T23:17:45.877Z,70.20
2023-09-23T23:20:16.104Z,70.23
2023-09-23T23:22:44.661Z,70.32
2023-09-23T23:25:12.439Z,70.75
2023-09-23T23:27:40.857Z,70.67
2023-09-23T23:30:09.424Z,70.82
2023-09-23T23:32:39.285Z,71.16
2023-09-23T23:35:06.892Z,70.73
2023-09-23T23:37:36.885Z,71.61
2023-09-23T23:40:05.848Z,71.34
2023-09-23T23:42:35.190Z,71.26
2023-09-23T23:45:03.234Z,71.90
2023-09-23T23:47:30.849Z,71.42
2023-09-23T23:49:59.882Z,71.49
2023-09-23T23:52:30.089Z,71.88
2023-09-23T23:54:58.198Z,71.66
2023-09-23T23:57:26.421Z,71.74
2023-09-23T23:59:54.659Z,71.66
